PWSweather.com
Personal Weather Stations
Station Observations
EDDERTON
Rossshire, EddertonGB IV191LA

RossshireEddertonGB IV191LA

Lat: 57.838, Lon: -4.176

Elevation: 60

Station Type: Davis Vantage PRO2 Wireless With Solar Sensor

http://www.ardmore-lodge.com

Latest ConditionsUpdated 4:45:01 AM GMT Wednesday, Oct 22, 2014
Currently Today's Max Today's Min Today's Average
Temperature 45.3°F7.4°C 48.7°F9.3°C 45.3°F7.4°C 46.9°F8.3°C
Dew Point 41.1°F5.1°C 42.5°F5.8°C 40.1°F4.5°C 41.3°F5.2°C
Winds Calm Calm 14.7 mph W23.7 kmh W - 6.8 mph 10.9 kmh
Wind Gusts -- 19.0 mph30.6 kmh - -
Humidity 85% 86% 76% 81%
Pressure 29.93 in1013.5 mb 29.94 in1013.9 mb 29.86 in1011.2 mb -
Precipitation - 0.01 in0.3 mm - -
Hour Temp Dew Point Humidity Winds Wind Gusts Pressure Precip Precip Rate Daily Precip Total
04:45 AM 45.3°F7.4°C 41.1°F5.1°C 85% Calm Calm -- 29.93 in1013.5 mb 0.00 in0.0 mm 0.00 in/hr0.0 mm/hr 0.01 in0.3 mm
04:30 AM 46.2°F7.9°C 41.0°F5.0°C 82% 1.6 mph WNW2.6 kmh WNW 2.0 mph3.2 kmh 29.93 in1013.5 mb 0.00 in0.0 mm 0.00 in/hr0.0 mm/hr 0.01 in0.3 mm
04:15 AM 47.3°F8.5°C 41.4°F5.2°C 80% 2.2 mph WNW3.5 kmh WNW 3.0 mph4.8 kmh 29.91 in1012.9 mb 0.00 in0.0 mm 0.00 in/hr0.0 mm/hr 0.01 in0.3 mm
04:00 AM 48.7°F9.3°C 41.5°F5.3°C 76% 6.5 mph NW10.5 kmh NW 7.0 mph11.3 kmh 29.93 in1013.5 mb 0.00 in0.0 mm 0.00 in/hr0.0 mm/hr 0.01 in0.3 mm
03:45 AM 48.5°F9.2°C 41.6°F5.3°C 77% 10.9 mph W17.5 kmh W 15.0 mph24.1 kmh 29.94 in1013.9 mb 0.00 in0.0 mm 0.00 in/hr0.0 mm/hr 0.01 in0.3 mm
03:30 AM 48.0°F8.9°C 41.1°F5.1°C 77% 9.1 mph WNW14.6 kmh WNW 16.0 mph25.7 kmh 29.94 in1013.9 mb 0.00 in0.0 mm 0.00 in/hr0.0 mm/hr 0.01 in0.3 mm
03:15 AM 47.3°F8.5°C 41.4°F5.2°C 80% 4.8 mph WSW7.7 kmh WSW 9.0 mph14.5 kmh 29.93 in1013.5 mb 0.00 in0.0 mm 0.00 in/hr0.0 mm/hr 0.01 in0.3 mm
03:00 AM 47.5°F8.6°C 42.0°F5.6°C 81% 4.9 mph WSW7.9 kmh WSW 9.0 mph14.5 kmh 29.92 in1013.2 mb 0.00 in0.0 mm 0.00 in/hr0.0 mm/hr 0.01 in0.3 mm
02:45 AM 47.1°F8.4°C 42.2°F5.7°C 83% 6.6 mph WSW10.6 kmh WSW 12.0 mph19.3 kmh 29.92 in1013.2 mb 0.00 in0.0 mm 0.00 in/hr0.0 mm/hr 0.01 in0.3 mm
02:30 AM 46.8°F8.2°C 41.9°F5.5°C 83% 3.6 mph W5.8 kmh W 6.0 mph9.7 kmh 29.92 in1013.2 mb 0.00 in0.0 mm 0.00 in/hr0.0 mm/hr 0.01 in0.3 mm
02:15 AM 47.0°F8.3°C 41.5°F5.3°C 81% 3.4 mph W5.5 kmh W 11.0 mph17.7 kmh 29.92 in1013.2 mb 0.00 in0.0 mm 0.00 in/hr0.0 mm/hr 0.01 in0.3 mm
02:00 AM 47.1°F8.4°C 41.6°F5.3°C 81% 9.6 mph W15.4 kmh W 15.0 mph24.1 kmh 29.92 in1013.2 mb 0.00 in0.0 mm 0.00 in/hr0.0 mm/hr 0.01 in0.3 mm
01:45 AM 46.5°F8.1°C 41.3°F5.2°C 82% 8.0 mph WNW12.9 kmh WNW 11.0 mph17.7 kmh 29.91 in1012.9 mb 0.00 in0.0 mm 0.00 in/hr0.0 mm/hr 0.01 in0.3 mm
01:30 AM 46.3°F7.9°C 40.8°F4.9°C 81% 5.9 mph W9.5 kmh W 11.0 mph17.7 kmh 29.91 in1012.9 mb 0.00 in0.0 mm 0.00 in/hr0.0 mm/hr 0.01 in0.3 mm
01:15 AM 45.9°F7.7°C 40.1°F4.5°C 80% 7.6 mph W12.2 kmh W 11.0 mph17.7 kmh 29.91 in1012.9 mb 0.00 in0.0 mm 0.00 in/hr0.0 mm/hr 0.01 in0.3 mm
01:00 AM 46.1°F7.8°C 40.2°F4.6°C 80% 9.6 mph W15.4 kmh W 12.0 mph19.3 kmh 29.90 in1012.5 mb 0.00 in0.0 mm 0.00 in/hr0.0 mm/hr 0.01 in0.3 mm
12:45 AM 46.1°F7.8°C 40.3°F4.6°C 80% 11.0 mph W17.7 kmh W 17.0 mph27.4 kmh 29.89 in1012.2 mb 0.00 in0.0 mm 0.00 in/hr0.0 mm/hr 0.01 in0.3 mm
12:30 AM 46.5°F8.1°C 42.5°F5.8°C 86% 10.7 mph W17.2 kmh W 15.0 mph24.1 kmh 29.89 in1012.2 mb 0.01 in0.3 mm 0.04 in/hr1.0 mm/hr 0.01 in0.3 mm
12:15 AM 47.3°F8.5°C 42.1°F5.6°C 82% 4.4 mph W7.1 kmh W 7.0 mph11.3 kmh 29.88 in1011.9 mb 0.00 in0.0 mm 0.00 in/hr0.0 mm/hr 0.00 in0.0 mm
12:00 AM 47.0°F8.3°C 40.9°F4.9°C 79% 14.7 mph W23.7 kmh W 19.0 mph30.6 kmh 29.86 in1011.2 mb 0.00 in0.0 mm 0.00 in/hr0.0 mm/hr 0.00 in0.0 mm